Time;durP1;ratioP1;P1;durP2;ratioP2;P2;SDS_P1;SDS_P2;PMS_P1;PMS_P2;Temp;Humidity;BMP_temperature;BMP_pressure;BME280_temperature;BME280_humidity;BME280_pressure;Samples;Min_cycle;Max_cycle;Signal;HPM_P1;HPM_P2
2022/01/11 00:00:53;;;;;;;;;;;;;;;20.65;46.79;102707.28;5033905;28;4430;-65
2022/01/11 00:03:19;;;;;;;;;;;;;;;20.61;46.83;102706.97;5033234;28;5251;-67
2022/01/11 00:05:53;;;;;;;;;;;;;;;20.55;46.90;102710.16;5030584;28;4166;-65
2022/01/11 00:08:29;;;;;;;;;;;;;;;20.63;46.93;102718.66;5034273;28;4175;-66
2022/01/11 00:11:02;;;;;;;;;;;;;;;20.57;47.09;102707.44;5030757;28;4233;-65
2022/01/11 00:13:29;;;;;;;;;;;;;;;20.61;46.77;102712.72;5031904;28;4600;-66
2022/01/11 00:15:55;;;;;;;;;;;;;;;20.61;47.13;102713.47;5034448;28;4277;-66
2022/01/11 00:18:21;;;;;;;;;;;;;;;20.61;46.98;102707.72;5029577;28;5240;-66
2022/01/11 00:20:48;;;;;;;;;;;;;;;20.63;46.83;102704.25;5032278;28;4236;-66
2022/01/11 00:25:41;;;;;;;;;;;;;;;20.60;46.97;102699.72;5032436;28;4369;-66
2022/01/11 00:28:08;;;;;;;;;;;;;;;20.55;46.87;102694.97;5031502;28;4252;-66
2022/01/11 00:30:41;;;;;;;;;;;;;;;20.55;46.87;102698.63;5018441;28;4264;-66
2022/01/11 00:33:12;;;;;;;;;;;;;;;20.59;46.81;102703.94;5049384;28;4299;-66
2022/01/11 00:35:41;;;;;;;;;;;;;;;20.63;46.88;102707.13;5031868;28;4206;-66
2022/01/11 00:38:08;;;;;;;;;;;;;;;20.51;47.05;102704.81;5028311;28;4315;-67
2022/01/11 00:40:35;;;;;;;;;;;;;;;20.66;46.75;102717.44;5044431;28;4187;-66
2022/01/11 00:43:02;;;;;;;;;;;;;;;20.61;46.84;102709.84;5014233;28;4039;-67
2022/01/11 00:45:29;;;;;;;;;;;;;;;20.59;46.78;102716.25;5028942;28;4236;-67
2022/01/11 00:47:56;;;;;;;;;;;;;;;20.61;46.89;102718.50;5031818;28;4238;-66
2022/01/11 00:50:22;;;;;;;;;;;;;;;20.58;47.23;102728.34;5033030;28;4293;-67
2022/01/11 00:52:48;;;;;;;;;;;;;;;20.56;47.06;102725.28;5029526;28;4372;-66
2022/01/11 00:55:15;;;;;;;;;;;;;;;20.51;46.97;102730.72;5032408;28;4353;-66
2022/01/11 00:57:43;;;;;;;;;;;;;;;20.56;46.89;102745.44;5044220;28;4251;-67
2022/01/11 01:00:11;;;;;;;;;;;;;;;20.49;47.00;102736.34;5030307;28;4304;-66
2022/01/11 01:02:41;;;;;;;;;;;;;;;20.54;46.96;102740.28;5029085;28;5415;-66
2022/01/11 01:05:07;;;;;;;;;;;;;;;20.48;47.06;102749.22;5028821;28;4333;-66
2022/01/11 01:07:34;;;;;;;;;;;;;;;20.50;46.93;102760.88;5032905;28;4278;-67
2022/01/11 01:10:04;;;;;;;;;;;;;;;20.47;47.06;102756.31;5031776;28;4239;-66
2022/01/11 01:12:36;;;;;;;;;;;;;;;20.50;47.06;102755.13;5015053;28;4246;-66
2022/01/11 01:15:02;;;;;;;;;;;;;;;20.47;47.10;102758.44;5030117;28;4148;-66
2022/01/11 01:17:29;;;;;;;;;;;;;;;20.51;46.84;102762.38;5005892;28;5149;-66
2022/01/11 01:19:55;;;;;;;;;;;;;;;20.51;46.98;102765.28;5030349;28;4374;-66
2022/01/11 01:22:22;;;;;;;;;;;;;;;20.56;46.78;102769.25;5046096;28;4337;-67
2022/01/11 01:24:48;;;;;;;;;;;;;;;20.57;46.94;102775.75;5030300;28;4664;-66
2022/01/11 01:27:14;;;;;;;;;;;;;;;20.75;46.58;102765.63;5032519;28;4274;-66
2022/01/11 01:29:41;;;;;;;;;;;;;;;20.77;46.34;102770.78;5027674;28;4283;-67
2022/01/11 01:32:07;;;;;;;;;;;;;;;20.59;46.80;102778.78;5018837;28;4269;-66
2022/01/11 01:34:34;;;;;;;;;;;;;;;20.62;46.94;102781.22;5035612;28;5304;-66
2022/01/11 01:37:00;;;;;;;;;;;;;;;20.53;46.82;102792.72;5025791;28;4972;-67
2022/01/11 01:39:26;;;;;;;;;;;;;;;20.54;46.99;102788.44;5035217;28;4209;-68
2022/01/11 01:41:53;;;;;;;;;;;;;;;20.57;46.94;102793.03;5034280;28;4189;-66
2022/01/11 01:44:19;;;;;;;;;;;;;;;20.50;46.86;102798.31;5036715;28;4153;-65
2022/01/11 01:46:46;;;;;;;;;;;;;;;20.47;47.11;102801.63;5034815;28;4231;-66
2022/01/11 01:49:17;;;;;;;;;;;;;;;20.54;46.98;102794.97;5035150;28;4288;-66
2022/01/11 01:51:44;;;;;;;;;;;;;;;20.68;46.53;102804.72;5032692;28;4092;-66
2022/01/11 01:54:11;;;;;;;;;;;;;;;20.71;46.40;102805.63;5035587;28;5134;-67
2022/01/11 01:56:37;;;;;;;;;;;;;;;20.54;46.84;102799.97;5031926;28;4518;-67
2022/01/11 01:59:04;;;;;;;;;;;;;;;20.49;46.89;102804.66;5024202;28;4390;-66
2022/01/11 02:01:35;;;;;;;;;;;;;;;20.45;46.89;102810.09;5029363;28;4199;-65
2022/01/11 02:04:02;;;;;;;;;;;;;;;20.49;46.87;102805.41;5037233;28;4182;-66
2022/01/11 02:06:28;;;;;;;;;;;;;;;20.46;46.85;102812.38;5032944;28;5423;-66
2022/01/11 02:08:54;;;;;;;;;;;;;;;20.51;46.92;102810.56;5033300;28;4179;-67
2022/01/11 02:11:22;;;;;;;;;;;;;;;20.46;47.02;102806.63;5034074;28;4170;-66
2022/01/11 02:13:48;;;;;;;;;;;;;;;20.53;46.68;102809.97;5045638;28;4994;-67
2022/01/11 02:16:19;;;;;;;;;;;;;;;20.55;46.68;102813.75;5043220;28;4189;-66
2022/01/11 02:18:46;;;;;;;;;;;;;;;20.53;46.87;102822.25;5020174;28;6098;-66
2022/01/11 02:21:17;;;;;;;;;;;;;;;20.48;46.92;102829.81;5049428;28;4216;-66
2022/01/11 02:23:43;;;;;;;;;;;;;;;20.48;46.93;102831.94;5017409;28;4228;-66
2022/01/11 02:26:11;;;;;;;;;;;;;;;20.47;47.12;102831.16;5031102;28;4172;-66
2022/01/11 02:28:40;;;;;;;;;;;;;;;20.50;46.70;102835.72;5040780;28;4166;-66
2022/01/11 02:31:12;;;;;;;;;;;;;;;20.52;46.90;102837.97;5016740;28;4840;-66
2022/01/11 02:33:44;;;;;;;;;;;;;;;20.47;47.05;102848.41;5047545;28;4213;-66
2022/01/11 02:36:26;;;;;;;;;;;;;;;20.45;47.28;102842.50;5034048;28;4094;-66
2022/01/11 02:38:54;;;;;;;;;;;;;;;20.50;47.11;102844.34;5034025;28;5480;-66
2022/01/11 02:41:21;;;;;;;;;;;;;;;20.46;47.17;102852.66;5023493;28;4140;-66
2022/01/11 02:43:48;;;;;;;;;;;;;;;20.47;47.04;102848.41;5012631;28;4337;-66
2022/01/11 02:46:15;;;;;;;;;;;;;;;20.41;47.11;102859.47;5030316;28;4584;-66
2022/01/11 02:48:42;;;;;;;;;;;;;;;20.43;47.13;102858.84;5034441;28;4272;-66
2022/01/11 02:51:08;;;;;;;;;;;;;;;20.42;46.95;102869.63;5017978;28;4186;-66
2022/01/11 02:53:42;;;;;;;;;;;;;;;20.43;46.55;102874.03;5014065;28;4338;-66
2022/01/11 02:56:08;;;;;;;;;;;;;;;20.43;47.13;102864.59;5031010;28;4242;-66
2022/01/11 02:58:35;;;;;;;;;;;;;;;20.53;46.80;102856.03;5014897;28;4229;-65
2022/01/11 03:01:02;;;;;;;;;;;;;;;20.49;46.69;102862.97;5032276;28;4327;-65
2022/01/11 03:03:29;;;;;;;;;;;;;;;20.50;46.87;102864.50;5029074;28;4188;-67
2022/01/11 03:06:00;;;;;;;;;;;;;;;20.49;46.70;102862.22;5032585;28;4186;-66
2022/01/11 03:08:31;;;;;;;;;;;;;;;20.54;46.62;102863.28;5013612;28;5472;-67
2022/01/11 03:10:57;;;;;;;;;;;;;;;20.50;46.94;102867.38;5032166;28;4237;-66
2022/01/11 03:13:24;;;;;;;;;;;;;;;20.47;46.67;102862.81;5045721;28;4229;-66
2022/01/11 03:15:50;;;;;;;;;;;;;;;20.49;46.79;102874.47;5018167;28;4350;-67
2022/01/11 03:18:17;;;;;;;;;;;;;;;20.57;46.61;102879.38;5031433;28;4473;-66
2022/01/11 03:20:46;;;;;;;;;;;;;;;20.45;46.97;102876.28;5024021;28;5108;-67
2022/01/11 03:23:14;;;;;;;;;;;;;;;20.45;46.81;102879.91;5046608;28;4070;-66
2022/01/11 03:25:41;;;;;;;;;;;;;;;20.42;46.72;102874.63;5012452;28;4174;-66
2022/01/11 03:28:09;;;;;;;;;;;;;;;20.47;46.84;102885.84;5031781;28;5259;-66
2022/01/11 03:30:36;;;;;;;;;;;;;;;20.44;46.62;102892.03;5031141;28;4158;-66
2022/01/11 03:33:03;;;;;;;;;;;;;;;20.42;46.80;102886.88;5033496;28;4408;-67
2022/01/11 03:35:32;;;;;;;;;;;;;;;20.36;46.94;102889.28;5018934;28;4402;-67
2022/01/11 03:37:59;;;;;;;;;;;;;;;20.38;46.80;102898.06;5021383;28;4223;-66
2022/01/11 03:40:25;;;;;;;;;;;;;;;20.36;46.92;102897.91;5022341;28;4146;-66
2022/01/11 03:42:53;;;;;;;;;;;;;;;20.29;46.83;102907.41;5001366;28;4172;-66
2022/01/11 03:45:21;;;;;;;;;;;;;;;20.32;46.83;102911.22;5013806;28;5371;-66
2022/01/11 03:47:50;;;;;;;;;;;;;;;20.36;46.70;102915.16;5020221;28;5339;-66
2022/01/11 03:50:17;;;;;;;;;;;;;;;20.33;46.87;102913.50;5028997;28;4570;-66
2022/01/11 03:52:44;;;;;;;;;;;;;;;20.36;46.87;102918.03;5011385;28;4202;-66
2022/01/11 03:55:15;;;;;;;;;;;;;;;20.42;46.69;102909.16;5024477;28;4439;-66
2022/01/11 03:57:47;;;;;;;;;;;;;;;20.41;46.75;102911.28;5023028;28;4252;-66
2022/01/11 04:00:14;;;;;;;;;;;;;;;20.50;46.59;102910.56;5012570;28;5269;-66
2022/01/11 04:02:43;;;;;;;;;;;;;;;20.47;46.50;102916.75;5045393;28;4049;-66
2022/01/11 04:05:13;;;;;;;;;;;;;;;20.47;46.46;102908.84;5008682;28;4506;-66
2022/01/11 04:07:43;;;;;;;;;;;;;;;20.44;46.75;102918.69;5017674;28;4290;-67
2022/01/11 04:10:11;;;;;;;;;;;;;;;20.49;46.47;102914.03;5014264;28;4205;-67
2022/01/11 04:12:38;;;;;;;;;;;;;;;20.48;46.80;102909.63;5012070;28;4218;-66
2022/01/11 04:15:05;;;;;;;;;;;;;;;20.48;46.65;102913.25;5011287;28;4242;-67
2022/01/11 04:17:31;;;;;;;;;;;;;;;20.50;46.66;102912.66;5024549;28;4139;-67
2022/01/11 04:19:58;;;;;;;;;;;;;;;20.42;46.89;102915.66;5026309;28;4224;-67
2022/01/11 04:22:24;;;;;;;;;;;;;;;20.46;46.82;102915.97;5034064;28;4225;-66
2022/01/11 04:24:51;;;;;;;;;;;;;;;20.45;46.83;102914.44;5029596;28;4189;-67
2022/01/11 04:27:19;;;;;;;;;;;;;;;20.38;46.86;102912.44;5028814;28;4387;-67
2022/01/11 04:29:45;;;;;;;;;;;;;;;20.41;46.86;102914.16;5032932;28;4176;-67
2022/01/11 04:32:12;;;;;;;;;;;;;;;20.45;46.72;102914.44;5033746;28;4885;-67
2022/01/11 04:34:38;;;;;;;;;;;;;;;20.43;46.73;102914.31;5021695;28;5010;-66
2022/01/11 04:37:05;;;;;;;;;;;;;;;20.40;46.81;102918.38;5014212;28;4269;-66
2022/01/11 04:39:34;;;;;;;;;;;;;;;20.32;46.90;102917.75;5030583;28;4768;-66
2022/01/11 04:42:02;;;;;;;;;;;;;;;20.32;46.98;102920.63;5014718;28;5527;-66
2022/01/11 04:44:28;;;;;;;;;;;;;;;20.40;46.78;102929.88;5027645;28;4248;-66
2022/01/11 04:46:55;;;;;;;;;;;;;;;20.35;46.57;102922.28;5016190;28;4216;-67
2022/01/11 04:49:21;;;;;;;;;;;;;;;20.35;46.73;102922.28;5012304;28;4384;-66
2022/01/11 04:51:49;;;;;;;;;;;;;;;20.39;46.52;102928.38;5017416;28;4367;-66
2022/01/11 04:54:16;;;;;;;;;;;;;;;20.33;46.66;102919.25;5033855;28;4062;-66
2022/01/11 04:56:42;;;;;;;;;;;;;;;20.36;46.52;102935.31;5014270;28;5206;-66
2022/01/11 04:59:10;;;;;;;;;;;;;;;20.32;46.61;102935.00;5013589;28;4245;-66
2022/01/11 05:01:37;;;;;;;;;;;;;;;20.36;46.59;102935.31;5023197;28;4859;-67
2022/01/11 05:04:04;;;;;;;;;;;;;;;20.36;46.70;102941.06;5022699;28;4170;-67
2022/01/11 05:06:30;;;;;;;;;;;;;;;20.46;46.54;102935.38;5021399;28;5282;-66
2022/01/11 05:08:56;;;;;;;;;;;;;;;20.43;46.44;102943.09;5031418;28;4244;-66
2022/01/11 05:11:23;;;;;;;;;;;;;;;20.42;46.62;102946.56;5021171;28;4252;-66
2022/01/11 05:13:49;;;;;;;;;;;;;;;20.45;46.56;102948.97;5034625;28;4026;-66
2022/01/11 05:16:32;;;;;;;;;;;;;;;20.46;46.53;102947.66;5026462;28;4267;-66
2022/01/11 05:18:58;;;;;;;;;;;;;;;20.40;46.75;102947.16;5025048;28;4251;-66
2022/01/11 05:21:25;;;;;;;;;;;;;;;20.40;46.67;102952.16;5017574;28;4361;-66
2022/01/11 05:23:51;;;;;;;;;;;;;;;20.42;46.62;102941.56;5021568;28;4251;-66
2022/01/11 05:26:18;;;;;;;;;;;;;;;20.40;46.67;102950.03;5048680;28;5175;-66
2022/01/11 05:28:44;;;;;;;;;;;;;;;20.38;46.72;102944.09;5035372;28;4239;-66
2022/01/11 05:31:10;;;;;;;;;;;;;;;20.38;46.71;102943.34;5035364;28;4334;-66
2022/01/11 05:33:37;;;;;;;;;;;;;;;20.29;46.81;102953.44;5022676;28;4541;-66
2022/01/11 05:36:03;;;;;;;;;;;;;;;20.32;46.81;102951.50;5023578;28;5369;-65
2022/01/11 05:38:32;;;;;;;;;;;;;;;20.29;46.66;102959.22;5047697;28;4323;-66
2022/01/11 05:40:59;;;;;;;;;;;;;;;20.29;46.71;102956.34;5026253;28;5311;-66
2022/01/11 05:43:25;;;;;;;;;;;;;;;20.22;46.72;102965.84;5035786;28;4140;-66
2022/01/11 05:45:51;;;;;;;;;;;;;;;20.32;46.73;102966.66;5015851;28;4675;-66
2022/01/11 05:48:19;;;;;;;;;;;;;;;20.31;46.81;102962.25;5050366;28;4457;-65
2022/01/11 05:50:46;;;;;;;;;;;;;;;20.37;46.79;102971.38;5028076;28;4310;-66
2022/01/11 05:53:13;;;;;;;;;;;;;;;20.36;46.84;102981.34;5028270;28;4188;-65
2022/01/11 05:55:41;;;;;;;;;;;;;;;20.29;47.08;102977.25;5025667;28;4155;-65
2022/01/11 05:58:11;;;;;;;;;;;;;;;20.30;47.19;102972.25;5047770;28;4159;-67
2022/01/11 06:00:38;;;;;;;;;;;;;;;20.31;47.25;102985.28;5020742;28;4142;-67
2022/01/11 06:03:04;;;;;;;;;;;;;;;20.42;47.10;102981.84;5018427;28;4101;-67
2022/01/11 06:05:39;;;;;;;;;;;;;;;20.35;46.97;102990.59;5009673;28;4183;-67
2022/01/11 06:08:16;;;;;;;;;;;;;;;20.43;47.28;102977.63;5020965;28;4124;-67
2022/01/11 06:10:44;;;;;;;;;;;;;;;20.45;46.95;102983.53;5020264;28;4310;-67
2022/01/11 06:13:11;;;;;;;;;;;;;;;20.49;47.05;102983.84;5018380;28;4075;-66
2022/01/11 06:15:38;;;;;;;;;;;;;;;20.53;47.07;102977.66;5020611;28;4869;-67
2022/01/11 06:18:05;;;;;;;;;;;;;;;20.64;47.18;102982.16;5036028;28;3995;-67
2022/01/11 06:20:38;;;;;;;;;;;;;;;20.49;47.14;102995.38;5018805;28;5552;-66
2022/01/11 06:23:04;;;;;;;;;;;;;;;20.47;47.37;102994.44;5037896;28;4187;-67
2022/01/11 06:25:31;;;;;;;;;;;;;;;20.49;47.59;102994.63;5033631;28;4177;-67
2022/01/11 06:27:58;;;;;;;;;;;;;;;20.50;47.57;102990.38;5027611;28;4212;-66
2022/01/11 06:30:25;;;;;;;;;;;;;;;20.47;47.74;102986.56;5028998;28;4108;-67
2022/01/11 06:32:53;;;;;;;;;;;;;;;20.53;47.60;102991.31;5052425;28;4229;-67
2022/01/11 06:35:21;;;;;;;;;;;;;;;20.43;47.45;102986.25;5035003;28;4185;-67
2022/01/11 06:37:50;;;;;;;;;;;;;;;20.53;47.48;102983.44;5020985;28;4303;-67
2022/01/11 06:40:17;;;;;;;;;;;;;;;20.45;47.66;102989.28;5036897;28;4118;-66
2022/01/11 06:42:44;;;;;;;;;;;;;;;20.44;47.19;102990.66;5019655;28;4536;-67
2022/01/11 06:45:11;;;;;;;;;;;;;;;20.55;47.78;102992.22;5024923;28;4155;-65
2022/01/11 06:47:38;;;;;;;;;;;;;;;20.53;47.66;102994.19;5022261;28;4155;-69
2022/01/11 06:50:05;;;;;;;;;;;;;;;20.51;47.44;103003.41;5050338;28;4121;-66
2022/01/11 06:52:32;;;;;;;;;;;;;;;20.61;47.29;103006.34;5018047;28;5624;-66
2022/01/11 06:54:59;;;;;;;;;;;;;;;20.67;47.11;103001.84;5019776;28;4229;-65
2022/01/11 06:57:28;;;;;;;;;;;;;;;20.73;46.80;103000.81;5019261;28;5480;-66
2022/01/11 06:59:55;;;;;;;;;;;;;;;20.62;46.98;103013.66;5035396;28;5533;-66
2022/01/11 07:02:23;;;;;;;;;;;;;;;20.67;46.52;103016.25;5016976;28;3942;-66
2022/01/11 07:05:02;;;;;;;;;;;;;;;20.69;47.09;103030.06;5022195;28;5428;-66
2022/01/11 07:07:28;;;;;;;;;;;;;;;20.77;46.72;103027.78;5016826;28;5228;-65
2022/01/11 07:09:54;;;;;;;;;;;;;;;20.69;46.78;103024.28;5020997;28;4500;-66
2022/01/11 07:12:21;;;;;;;;;;;;;;;20.65;46.85;103024.72;5051906;28;4659;-65
2022/01/11 07:14:47;;;;;;;;;;;;;;;20.73;47.22;103030.38;5026556;28;4325;-66
2022/01/11 07:17:15;;;;;;;;;;;;;;;20.78;47.39;103032.22;5026841;28;5693;-65
2022/01/11 07:19:41;;;;;;;;;;;;;;;20.76;47.46;103039.94;5037251;28;4574;-64
2022/01/11 07:22:11;;;;;;;;;;;;;;;20.67;47.51;103033.53;5017765;28;4973;-65
2022/01/11 07:24:40;;;;;;;;;;;;;;;20.58;47.88;103036.34;5017957;28;4203;-67
2022/01/11 07:27:07;;;;;;;;;;;;;;;20.42;48.26;103036.53;5021530;28;6233;-67
2022/01/11 07:29:33;;;;;;;;;;;;;;;20.42;47.95;103047.28;5024478;28;4141;-67
2022/01/11 07:32:00;;;;;;;;;;;;;;;20.47;47.76;103047.00;5023846;28;4240;-67
2022/01/11 07:34:27;;;;;;;;;;;;;;;20.47;47.76;103052.00;5023882;28;4253;-68
2022/01/11 07:36:53;;;;;;;;;;;;;;;20.21;48.01;103067.91;5032148;28;5155;-66
2022/01/11 07:39:20;;;;;;;;;;;;;;;20.34;46.51;103075.41;5010518;28;4739;-68
2022/01/11 07:41:50;;;;;;;;;;;;;;;20.28;46.58;103069.91;5015531;28;4434;-67
2022/01/11 07:44:48;;;;;;;;;;;;;;;20.24;45.85;103072.44;5014565;28;4164;-67
2022/01/11 07:47:15;;;;;;;;;;;;;;;20.32;45.71;103076.00;5019242;28;4113;-67
2022/01/11 07:49:44;;;;;;;;;;;;;;;20.43;45.37;103071.81;5014764;28;4198;-66
2022/01/11 07:52:10;;;;;;;;;;;;;;;20.35;45.50;103071.19;5022890;28;4142;-67
2022/01/11 07:54:37;;;;;;;;;;;;;;;20.29;45.77;103082.94;5031920;28;4183;-67
2022/01/11 07:57:05;;;;;;;;;;;;;;;20.30;45.71;103075.84;5019495;28;4564;-67
2022/01/11 07:59:32;;;;;;;;;;;;;;;20.33;45.65;103077.53;5048502;28;4154;-69
2022/01/11 08:02:19;;;;;;;;;;;;;;;20.34;45.60;103081.94;5050777;28;4101;-69
2022/01/11 08:04:46;;;;;;;;;;;;;;;20.36;45.63;103079.19;5050988;28;4176;-67
2022/01/11 08:07:12;;;;;;;;;;;;;;;20.48;45.52;103090.97;5033354;28;4205;-66
2022/01/11 08:09:44;;;;;;;;;;;;;;;20.40;45.50;103082.41;5023630;28;4251;-67
2022/01/11 08:12:10;;;;;;;;;;;;;;;20.39;45.67;103089.53;5022712;28;4254;-68
2022/01/11 08:14:37;;;;;;;;;;;;;;;20.42;45.52;103088.34;5036971;28;4205;-68
2022/01/11 08:17:03;;;;;;;;;;;;;;;20.42;45.74;103088.34;5024248;28;5540;-68
2022/01/11 08:19:30;;;;;;;;;;;;;;;20.42;45.71;103093.34;5035929;28;4396;-67
2022/01/11 08:21:58;;;;;;;;;;;;;;;20.39;45.89;103091.66;5046726;28;4126;-66
2022/01/11 08:24:34;;;;;;;;;;;;;;;20.45;45.77;103090.00;5018404;28;5301;-67
2022/01/11 08:27:00;;;;;;;;;;;;;;;20.39;45.92;103089.53;5022870;28;4147;-66
2022/01/11 08:29:28;;;;;;;;;;;;;;;20.46;45.80;103093.69;5050290;28;4253;-66
2022/01/11 08:31:58;;;;;;;;;;;;;;;20.44;45.95;103096.38;5033833;28;4073;-65
2022/01/11 08:34:25;;;;;;;;;;;;;;;20.32;46.04;103089.63;5028917;28;4190;-66
2022/01/11 08:36:54;;;;;;;;;;;;;;;20.38;45.90;103104.50;5001976;28;4069;-66
2022/01/11 08:39:21;;;;;;;;;;;;;;;20.34;45.88;103099.19;5011515;28;4456;-66
2022/01/11 08:41:48;;;;;;;;;;;;;;;20.48;45.62;103105.34;5026783;28;5698;-65
2022/01/11 08:44:14;;;;;;;;;;;;;;;20.42;45.71;103099.09;5018294;28;4315;-67
2022/01/11 08:46:41;;;;;;;;;;;;;;;20.40;45.73;103108.31;5014614;28;4123;-66
2022/01/11 08:49:16;;;;;;;;;;;;;;;20.39;45.47;103112.56;5014848;28;4287;-66
2022/01/11 08:51:43;;;;;;;;;;;;;;;20.40;45.49;103121.94;5006309;28;4165;-66
2022/01/11 08:54:14;;;;;;;;;;;;;;;20.40;45.64;103113.31;5019061;28;4251;-66
2022/01/11 08:56:42;;;;;;;;;;;;;;;20.41;45.36;103115.59;5020235;28;4311;-65
2022/01/11 08:59:10;;;;;;;;;;;;;;;20.40;45.64;103122.69;5031897;28;4221;-66
2022/01/11 09:01:37;;;;;;;;;;;;;;;20.39;45.55;103118.31;5049710;28;4273;-65
2022/01/11 09:04:08;;;;;;;;;;;;;;;20.34;45.66;103115.69;5012679;28;4131;-66
2022/01/11 09:06:58;;;;;;;;;;;;;;;20.42;45.72;103111.34;5018077;28;5209;-66
2022/01/11 09:09:26;;;;;;;;;;;;;;;20.46;45.70;103111.69;5013324;28;5206;-67
2022/01/11 09:11:54;;;;;;;;;;;;;;;20.45;45.62;103112.28;5046978;28;4244;-67
2022/01/11 09:14:21;;;;;;;;;;;;;;;20.38;45.58;103111.03;5012701;28;5275;-68
2022/01/11 09:16:48;;;;;;;;;;;;;;;20.39;45.68;103117.56;4996396;28;5236;-67
2022/01/11 09:19:15;;;;;;;;;;;;;;;20.40;45.48;103114.06;4998431;28;4124;-68
2022/01/11 09:21:43;;;;;;;;;;;;;;;20.29;45.54;103112.50;5000781;28;4141;-69
2022/01/11 09:24:11;;;;;;;;;;;;;;;20.38;45.16;103116.78;5050815;28;4021;-67
2022/01/11 09:26:41;;;;;;;;;;;;;;;20.38;45.06;103125.41;5031738;28;4180;-67
2022/01/11 09:29:08;;;;;;;;;;;;;;;20.25;44.81;103120.78;5027812;28;5563;-66
2022/01/11 09:31:35;;;;;;;;;;;;;;;19.80;46.13;103119.16;5030481;28;4261;-71
2022/01/11 09:34:04;;;;;;;;;;;;;;;20.12;45.57;103117.50;5023246;28;4205;-70
2022/01/11 09:36:31;;;;;;;;;;;;;;;20.11;45.16;103116.69;5024069;28;4643;-70
2022/01/11 09:38:58;;;;;;;;;;;;;;;20.19;44.99;103120.28;5017907;28;5574;-68
2022/01/11 09:41:25;;;;;;;;;;;;;;;20.28;44.70;103119.59;5035362;28;4898;-68
2022/01/11 09:43:52;;;;;;;;;;;;;;;20.33;44.77;103120.69;5012946;28;4182;-68
2022/01/11 09:46:19;;;;;;;;;;;;;;;20.36;44.63;103118.72;5016373;28;4249;-68
2022/01/11 09:48:48;;;;;;;;;;;;;;;20.29;44.80;103121.13;5030939;28;4170;-68
2022/01/11 09:51:17;;;;;;;;;;;;;;;20.41;44.61;103121.34;5014870;28;4656;-68
2022/01/11 09:53:46;;;;;;;;;;;;;;;20.44;44.70;103120.16;5015967;28;5524;-68
2022/01/11 09:56:13;;;;;;;;;;;;;;;20.42;44.90;103114.25;5019450;28;4161;-68
2022/01/11 09:58:40;;;;;;;;;;;;;;;20.35;44.87;103117.22;5016612;28;5447;-68
2022/01/11 10:01:45;;;;;;;;;;;;;;;20.41;44.98;103104.09;5014046;28;5642;-67
2022/01/11 10:04:32;;;;;;;;;;;;;;;20.41;44.94;103109.84;5017086;28;4155;-68
2022/01/11 10:07:13;;;;;;;;;;;;;;;20.36;45.18;103116.59;5018394;28;4790;-66
2022/01/11 10:09:48;;;;;;;;;;;;;;;20.45;44.95;103113.03;5023015;28;4257;-68
2022/01/11 10:12:15;;;;;;;;;;;;;;;20.35;45.03;103112.22;5015753;28;4691;-67
2022/01/11 10:14:46;;;;;;;;;;;;;;;20.47;44.80;103113.22;5022621;28;5440;-67
2022/01/11 10:17:12;;;;;;;;;;;;;;;20.41;45.02;103117.69;5032106;28;4249;-66
2022/01/11 10:19:41;;;;;;;;;;;;;;;20.44;44.89;103114.41;5018602;28;4264;-67
2022/01/11 10:22:08;;;;;;;;;;;;;;;20.51;44.89;103116.41;5053013;28;4114;-67
2022/01/11 10:24:38;;;;;;;;;;;;;;;20.43;44.99;103121.53;5019784;28;4567;-67
2022/01/11 10:27:19;;;;;;;;;;;;;;;20.41;45.08;103115.59;5035702;28;4059;-67
2022/01/11 10:29:47;;;;;;;;;;;;;;;20.46;45.11;103128.97;5026320;28;4649;-67
2022/01/11 10:32:31;;;;;;;;;;;;;;;20.48;45.22;103111.13;5010556;28;4103;-67
2022/01/11 10:35:12;;;;;;;;;;;;;;;20.45;45.10;103121.66;5052914;28;4557;-67
2022/01/11 10:38:00;;;;;;;;;;;;;;;20.48;45.15;103120.50;5051978;28;4188;-67
2022/01/11 10:40:30;;;;;;;;;;;;;;;20.43;45.17;103118.66;5020795;28;4088;-68
2022/01/11 10:42:57;;;;;;;;;;;;;;;20.45;45.37;103121.66;5027526;28;4205;-66
2022/01/11 10:45:24;;;;;;;;;;;;;;;20.46;45.41;103120.34;5035676;28;4613;-67
2022/01/11 10:47:52;;;;;;;;;;;;;;;20.48;45.32;103114.00;5050886;28;4553;-67
2022/01/11 10:50:22;;;;;;;;;;;;;;;20.45;45.56;103110.16;5019825;28;4527;-66
2022/01/11 10:52:49;;;;;;;;;;;;;;;20.39;45.45;103097.41;5034950;28;4619;-67
2022/01/11 10:55:23;;;;;;;;;;;;;;;20.46;45.03;103111.69;5016311;28;4120;-68
2022/01/11 10:57:51;;;;;;;;;;;;;;;20.38;45.71;103108.13;5032823;28;4110;-67
2022/01/11 11:00:19;;;;;;;;;;;;;;;20.30;45.47;103107.50;5037534;28;4565;-66
2022/01/11 11:02:49;;;;;;;;;;;;;;;20.43;45.32;103104.25;5050435;28;4616;-66
2022/01/11 11:05:19;;;;;;;;;;;;;;;20.40;45.20;103101.81;5019038;28;4448;-67
2022/01/11 11:07:53;;;;;;;;;;;;;;;20.44;45.14;103102.13;5025926;28;4540;-68
2022/01/11 11:10:33;;;;;;;;;;;;;;;20.51;45.76;103107.78;5036717;28;4059;-68
2022/01/11 11:13:00;;;;;;;;;;;;;;;20.37;45.92;103115.25;5036435;28;4306;-67
2022/01/11 11:15:27;;;;;;;;;;;;;;;20.44;45.74;103113.66;5026804;28;4200;-67
2022/01/11 11:18:07;;;;;;;;;;;;;;;20.46;45.92;103108.81;5020189;28;5425;-66
2022/01/11 11:20:38;;;;;;;;;;;;;;;20.46;45.70;103111.69;5010928;28;4153;-68
2022/01/11 11:23:04;;;;;;;;;;;;;;;20.43;45.85;103115.78;4996476;28;4599;-68
2022/01/11 11:25:31;;;;;;;;;;;;;;;20.29;46.07;103123.22;4989509;28;4497;-70
2022/01/11 11:27:57;;;;;;;;;;;;;;;20.25;46.05;103122.91;4990954;28;4128;-71
2022/01/11 11:30:23;;;;;;;;;;;;;;;20.31;45.87;103111.88;4989664;28;4280;-66
2022/01/11 11:32:51;;;;;;;;;;;;;;;20.42;45.80;103122.13;4989719;28;4193;-68
2022/01/11 11:35:17;;;;;;;;;;;;;;;20.36;45.88;103118.72;4990400;28;5289;-68
2022/01/11 11:37:45;;;;;;;;;;;;;;;20.39;45.87;103115.44;4994442;28;5332;-67
2022/01/11 11:40:21;;;;;;;;;;;;;;;20.29;45.91;103108.84;4994713;28;4225;-67
2022/01/11 11:42:52;;;;;;;;;;;;;;;20.33;45.96;103108.41;4995345;28;4331;-68
2022/01/11 11:45:22;;;;;;;;;;;;;;;20.39;46.12;103111.81;4981133;28;6388;-67
2022/01/11 11:47:49;;;;;;;;;;;;;;;20.42;46.18;103104.84;4975589;28;5303;-67
2022/01/11 11:50:16;;;;;;;;;;;;;;;20.38;46.11;103099.50;4974952;28;4258;-66
2022/01/11 11:52:46;;;;;;;;;;;;;;;20.40;46.05;103101.81;4973032;28;4252;-67
2022/01/11 11:55:19;;;;;;;;;;;;;;;20.43;46.02;103110.03;4977236;28;4193;-68
2022/01/11 12:01:06;;;;;;;;;;;;;;;20.39;46.33;103098.16;4976592;28;4217;-67
2022/01/11 12:03:33;;;;;;;;;;;;;;;20.42;46.30;103099.09;4976110;28;4187;-66
2022/01/11 12:05:59;;;;;;;;;;;;;;;20.43;46.27;103106.34;4973974;28;6716;-67
2022/01/11 12:08:34;;;;;;;;;;;;;;;20.35;46.13;103108.59;4975660;28;5266;-67
2022/01/11 12:11:05;;;;;;;;;;;;;;;20.38;46.26;103111.03;4989699;28;6071;-66
2022/01/11 12:13:47;;;;;;;;;;;;;;;20.35;46.21;103106.47;4992055;28;4249;-67
2022/01/11 12:16:25;;;;;;;;;;;;;;;20.38;46.22;103116.03;5012558;28;4239;-67
2022/01/11 12:18:55;;;;;;;;;;;;;;;20.36;46.28;103119.50;4999745;28;4207;-67
2022/01/11 12:21:21;;;;;;;;;;;;;;;20.36;46.27;103107.97;5032153;28;4357;-67
2022/01/11 12:23:52;;;;;;;;;;;;;;;20.45;45.98;103107.28;5029913;28;5109;-65
2022/01/11 12:26:20;;;;;;;;;;;;;;;20.48;45.81;103109.00;5034282;28;4195;-66
2022/01/11 12:29:02;;;;;;;;;;;;;;;20.47;45.80;103103.81;5035395;28;5249;-66
2022/01/11 12:31:28;;;;;;;;;;;;;;;20.45;45.81;103101.53;5035918;28;4277;-65
2022/01/11 12:33:54;;;;;;;;;;;;;;;20.51;45.65;103096.28;5035349;28;4158;-66
2022/01/11 12:36:22;;;;;;;;;;;;;;;20.45;45.80;103104.41;5035802;28;4149;-66
2022/01/11 12:38:58;;;;;;;;;;;;;;;20.44;45.85;103096.38;5034161;28;4203;-66
2022/01/11 12:41:29;;;;;;;;;;;;;;;20.44;45.71;103093.50;5035624;28;3989;-66
2022/01/11 12:44:14;;;;;;;;;;;;;;;20.50;45.57;103097.66;5036197;28;4189;-66
2022/01/11 12:46:51;;;;;;;;;;;;;;;20.55;45.63;103101.63;5036105;28;4131;-65
2022/01/11 12:49:17;;;;;;;;;;;;;;;20.50;45.89;103099.75;5035768;28;4244;-66
2022/01/11 12:51:52;;;;;;;;;;;;;;;20.54;45.97;103099.31;5036448;28;4319;-66
2022/01/11 12:54:19;;;;;;;;;;;;;;;20.49;45.68;103103.97;5036118;28;5228;-66
2022/01/11 12:56:46;;;;;;;;;;;;;;;20.53;45.58;103106.44;5033794;28;4139;-66
2022/01/11 12:59:12;;;;;;;;;;;;;;;20.46;45.73;103100.19;5017271;28;5564;-66
2022/01/11 13:01:39;;;;;;;;;;;;;;;20.51;45.93;103104.16;5035458;28;4694;-65